Time;durP1;ratioP1;P1;durP2;ratioP2;P2;SDS_P1;SDS_P2;PMS_P1;PMS_P2;Temp;Humidity;BMP_temperature;BMP_pressure;BME280_temperature;BME280_humidity;BME280_pressure;Samples;Min_cycle;Max_cycle;Signal;HPM_P1;HPM_P2
2023/07/04 00:01:57;;;;;;;8.93;8.03;;;;;;;18.65;100.00;99115.53;5113134;28;20190;-76
2023/07/04 00:04:24;;;;;;;9.90;8.30;;;;;;;18.69;100.00;99113.03;5107493;28;20632;-76
2023/07/04 00:06:50;;;;;;;9.37;8.43;;;;;;;18.69;100.00;99113.84;5111917;28;20205;-77
2023/07/04 00:09:17;;;;;;;12.83;8.77;;;;;;;18.69;100.00;99111.16;5108665;28;20701;-76
2023/07/04 00:11:44;;;;;;;8.47;7.67;;;;;;;18.69;100.00;99107.63;5102029;28;20203;-76
2023/07/04 00:14:11;;;;;;;8.70;7.80;;;;;;;18.69;100.00;99111.16;5109423;28;20269;-76
2023/07/04 00:16:37;;;;;;;9.00;8.03;;;;;;;18.68;100.00;99112.22;5092106;28;20205;-77
2023/07/04 00:19:06;;;;;;;8.57;7.77;;;;;;;18.66;100.00;99108.19;5107784;28;20207;-76
2023/07/04 00:21:33;;;;;;;8.90;7.83;;;;;;;18.64;100.00;99113.91;5110796;28;20214;-76
2023/07/04 00:24:00;;;;;;;9.20;8.30;;;;;;;18.63;100.00;99108.75;5112551;28;20195;-76
2023/07/04 00:26:26;;;;;;;8.97;8.00;;;;;;;18.64;100.00;99111.19;5107594;28;20217;-77
2023/07/04 00:28:53;;;;;;;11.37;8.67;;;;;;;18.63;100.00;99104.13;5094288;28;20209;-77
2023/07/04 00:31:23;;;;;;;9.37;8.47;;;;;;;18.60;100.00;99093.88;5112496;28;20206;-77
2023/07/04 00:33:51;;;;;;;9.10;8.20;;;;;;;18.58;100.00;99097.94;5094390;28;20235;-76
2023/07/04 00:36:19;;;;;;;9.37;8.27;;;;;;;18.55;100.00;99093.91;5112320;28;20255;-76
2023/07/04 00:38:48;;;;;;;9.73;8.20;;;;;;;18.51;100.00;99097.44;5101344;28;20593;-77
2023/07/04 00:41:21;;;;;;;9.67;8.60;;;;;;;18.47;100.00;99094.50;5098668;28;20225;-78
2023/07/04 00:44:00;;;;;;;10.07;8.47;;;;;;;18.43;100.00;99099.66;5090352;28;20278;-76
2023/07/04 00:46:53;;;;;;;11.73;8.33;;;;;;;18.43;100.00;99109.69;5089876;28;20189;-77
2023/07/04 00:49:28;;;;;;;9.53;8.53;;;;;;;18.37;100.00;99102.72;5077135;28;20211;-76
2023/07/04 00:52:04;;;;;;;8.90;7.87;;;;;;;18.36;100.00;99104.59;5085175;28;20296;-77
2023/07/04 00:54:57;;;;;;;9.30;8.07;;;;;;;18.35;100.00;99107.59;5057650;28;20205;-76
2023/07/04 00:57:31;;;;;;;9.60;8.53;;;;;;;18.35;100.00;99105.69;5078285;28;20658;-76
2023/07/04 01:00:08;;;;;;;8.70;7.90;;;;;;;18.36;100.00;99110.03;5086444;28;20259;-76
2023/07/04 01:02:35;;;;;;;9.40;8.37;;;;;;;18.34;100.00;99112.19;5111908;28;20190;-77
2023/07/04 01:05:05;;;;;;;9.50;8.10;;;;;;;18.32;100.00;99113.59;5111624;28;20221;-77
2023/07/04 01:07:42;;;;;;;8.60;7.80;;;;;;;18.24;100.00;99112.28;5090043;28;20833;-81
2023/07/04 01:10:20;;;;;;;9.63;8.37;;;;;;;18.21;100.00;99115.56;5111113;28;20590;-76
2023/07/04 01:12:48;;;;;;;8.93;8.10;;;;;;;18.20;100.00;99119.34;5091998;28;20732;-77
2023/07/04 01:15:16;;;;;;;10.60;8.23;;;;;;;18.21;100.00;99122.88;5092381;28;20203;-80
2023/07/04 01:17:42;;;;;;;9.77;8.00;;;;;;;18.22;100.00;99119.06;5111832;28;20650;-76
2023/07/04 01:20:11;;;;;;;9.47;8.30;;;;;;;18.20;100.00;99113.94;5111170;28;20217;-77
2023/07/04 01:22:43;;;;;;;8.90;8.00;;;;;;;18.22;100.00;99108.22;5093921;28;20199;-76
2023/07/04 01:25:20;;;;;;;9.93;8.63;;;;;;;18.21;100.00;99112.84;5093889;28;20204;-76
2023/07/04 01:27:48;;;;;;;10.70;8.13;;;;;;;18.19;100.00;99112.31;5112036;28;20208;-77
2023/07/04 01:30:17;;;;;;;8.90;8.07;;;;;;;18.19;100.00;99114.22;5093716;28;20245;-77
2023/07/04 01:32:44;;;;;;;9.57;8.30;;;;;;;18.20;100.00;99126.66;5097931;28;20283;-76
2023/07/04 01:35:13;;;;;;;9.17;8.27;;;;;;;18.20;100.00;99135.63;5115893;28;20180;-77
2023/07/04 01:37:39;;;;;;;8.93;8.03;;;;;;;18.20;100.00;99135.63;5090408;28;20196;-78
2023/07/04 01:40:10;;;;;;;9.70;8.30;;;;;;;18.20;100.00;99134.81;5108258;28;20693;-77
2023/07/04 01:42:36;;;;;;;10.07;8.20;;;;;;;18.23;100.00;99126.13;5111376;28;20625;-77
2023/07/04 01:45:05;;;;;;;9.47;8.27;;;;;;;18.18;100.00;99126.97;5089889;28;20677;-76
2023/07/04 01:47:33;;;;;;;8.70;7.87;;;;;;;18.19;100.00;99130.50;5086739;28;20196;-77
2023/07/04 01:50:01;;;;;;;9.03;8.03;;;;;;;18.19;100.00;99120.47;5094569;28;20201;-76
2023/07/04 01:52:28;;;;;;;8.50;7.70;;;;;;;18.17;100.00;99130.75;5115481;28;20229;-77
2023/07/04 01:54:56;;;;;;;9.10;8.10;;;;;;;18.15;100.00;99132.16;5095100;28;20212;-77
2023/07/04 01:57:23;;;;;;;9.80;7.83;;;;;;;18.13;100.00;99135.13;5114766;28;20657;-77
2023/07/04 01:59:50;;;;;;;9.43;8.53;;;;;;;18.10;100.00;99124.88;5096908;28;20199;-77
2023/07/04 02:02:17;;;;;;;9.17;8.20;;;;;;;18.10;100.00;99127.56;5093695;28;20194;-77
2023/07/04 02:04:43;;;;;;;9.23;8.33;;;;;;;18.10;100.00;99138.41;5115104;28;20319;-77
2023/07/04 02:07:11;;;;;;;9.27;8.20;;;;;;;18.06;100.00;99131.91;5097048;28;20197;-77
2023/07/04 02:09:38;;;;;;;9.00;8.10;;;;;;;18.05;100.00;99141.16;5115219;28;20720;-76
2023/07/04 02:12:05;;;;;;;9.43;7.90;;;;;;;18.06;100.00;99148.16;5112530;28;20218;-77
2023/07/04 02:14:31;;;;;;;9.37;8.47;;;;;;;18.09;100.00;99142.22;5108076;28;20636;-77
2023/07/04 02:16:58;;;;;;;9.80;8.80;;;;;;;18.10;100.00;99151.16;5115618;28;20274;-77
2023/07/04 02:19:25;;;;;;;9.47;8.53;;;;;;;18.10;100.00;99146.56;5112581;28;20186;-77
2023/07/04 02:21:52;;;;;;;9.40;8.40;;;;;;;18.15;100.00;99148.41;5097045;28;20210;-76
2023/07/04 02:24:19;;;;;;;9.00;8.10;;;;;;;18.10;100.00;99143.84;5109429;28;20691;-77
2023/07/04 02:26:46;;;;;;;10.23;8.50;;;;;;;18.10;100.00;99143.03;5114985;28;20197;-77
2023/07/04 02:29:12;;;;;;;9.53;8.50;;;;;;;18.10;100.00;99154.69;5109246;28;20751;-76
2023/07/04 02:31:39;;;;;;;9.27;8.00;;;;;;;18.08;100.00;99154.13;5096436;28;20293;-77
2023/07/04 02:34:06;;;;;;;9.93;8.03;;;;;;;18.06;100.00;99161.72;5094577;28;20202;-77
2023/07/04 02:36:33;;;;;;;9.30;8.30;;;;;;;18.06;100.00;99169.06;5081435;28;20207;-77
2023/07/04 02:39:00;;;;;;;11.30;8.30;;;;;;;18.05;100.00;99173.69;5100994;28;20192;-77
2023/07/04 02:41:29;;;;;;;9.93;8.43;;;;;;;18.06;100.00;99179.91;5086112;28;20272;-76
2023/07/04 02:43:57;;;;;;;10.27;8.63;;;;;;;18.08;100.00;99180.44;5093905;28;20218;-76
2023/07/04 02:46:23;;;;;;;10.00;8.40;;;;;;;18.05;100.00;99181.81;5080364;28;20255;-76
2023/07/04 02:48:55;;;;;;;9.80;8.80;;;;;;;18.04;100.00;99174.75;5068437;28;20214;-76
2023/07/04 02:51:22;;;;;;;9.37;8.37;;;;;;;18.01;100.00;99176.13;5078953;28;20252;-76
2023/07/04 02:53:49;;;;;;;10.90;8.40;;;;;;;17.99;100.00;99169.38;5098274;28;20557;-76
2023/07/04 02:56:16;;;;;;;10.70;9.10;;;;;;;18.00;100.00;99179.13;5088821;28;20728;-77
2023/07/04 02:58:43;;;;;;;9.67;8.67;;;;;;;18.03;100.00;99178.56;5063122;28;20193;-76
2023/07/04 03:01:10;;;;;;;9.33;8.37;;;;;;;18.01;100.00;99169.88;5079413;28;20226;-77
2023/07/04 03:03:36;;;;;;;9.07;8.17;;;;;;;18.05;100.00;99173.69;5071056;28;20226;-75
2023/07/04 03:06:05;;;;;;;9.13;8.20;;;;;;;18.06;100.00;99175.28;5073421;28;20212;-76
2023/07/04 03:08:33;;;;;;;10.30;8.97;;;;;;;18.08;100.00;99189.38;5074729;28;20660;-77
2023/07/04 03:11:00;;;;;;;11.60;8.67;;;;;;;18.09;100.00;99179.34;5078858;28;20643;-78
2023/07/04 03:13:31;;;;;;;9.63;8.70;;;;;;;18.12;100.00;99182.31;5072204;28;20198;-76
2023/07/04 03:15:58;;;;;;;10.47;8.40;;;;;;;18.11;100.00;99174.44;5092043;28;20212;-77
2023/07/04 03:18:26;;;;;;;10.90;9.17;;;;;;;18.18;100.00;99177.66;5092599;28;20548;-77
2023/07/04 03:20:53;;;;;;;10.57;9.00;;;;;;;18.19;100.00;99184.72;5091096;28;20249;-76
2023/07/04 03:23:20;;;;;;;11.17;8.53;;;;;;;18.24;100.00;99180.09;5113657;28;20203;-77
2023/07/04 03:25:48;;;;;;;11.57;8.87;;;;;;;18.20;100.00;99180.91;5090116;28;20203;-77
2023/07/04 03:28:16;;;;;;;11.07;8.80;;;;;;;18.23;100.00;99183.88;5091678;28;20204;-76
2023/07/04 03:30:44;;;;;;;10.50;8.47;;;;;;;18.27;100.00;99179.50;5076502;28;20628;-76
2023/07/04 03:33:12;;;;;;;10.13;9.00;;;;;;;18.31;100.00;99186.00;5100036;28;20191;-77
2023/07/04 03:35:39;;;;;;;9.50;8.53;;;;;;;18.28;100.00;99186.56;5082485;28;20226;-76
2023/07/04 03:38:24;;;;;;;9.23;8.33;;;;;;;18.32;100.00;99189.53;5072172;28;20201;-76
2023/07/04 03:40:51;;;;;;;11.10;9.10;;;;;;;18.38;100.00;99186.47;5075884;28;20265;-77
2023/07/04 03:43:18;;;;;;;10.07;9.07;;;;;;;18.47;100.00;99184.81;5077005;28;20286;-77
2023/07/04 03:45:46;;;;;;;10.83;9.20;;;;;;;18.49;100.00;99184.50;5098595;28;20231;-77
2023/07/04 03:48:13;;;;;;;9.97;8.97;;;;;;;18.46;100.00;99187.81;5084366;28;20226;-77
2023/07/04 03:50:40;;;;;;;9.60;8.50;;;;;;;18.48;100.00;99188.31;5094769;28;20361;-77
2023/07/04 03:53:07;;;;;;;8.90;8.00;;;;;;;18.49;100.00;99198.06;5113304;28;20197;-77
2023/07/04 03:55:35;;;;;;;9.23;8.33;;;;;;;18.52;100.00;99191.28;5096118;28;20250;-77
2023/07/04 03:58:02;;;;;;;9.93;8.93;;;;;;;18.48;100.00;99191.03;5094560;28;20593;-77
2023/07/04 04:00:29;;;;;;;9.87;8.87;;;;;;;18.49;100.00;99206.22;5111118;28;20223;-77
2023/07/04 04:02:56;;;;;;;9.83;8.83;;;;;;;18.45;100.00;99203.25;5101308;28;20192;-77
2023/07/04 04:05:23;;;;;;;10.37;8.50;;;;;;;18.42;100.00;99201.13;5112702;28;20239;-78
2023/07/04 04:07:50;;;;;;;10.20;9.07;;;;;;;18.41;100.00;99214.94;5101688;28;20660;-77
2023/07/04 04:10:17;;;;;;;10.20;8.77;;;;;;;18.36;100.00;99209.56;5109986;28;20231;-76
2023/07/04 04:12:44;;;;;;;9.70;8.63;;;;;;;18.34;100.00;99209.81;5093538;28;20282;-76
2023/07/04 04:15:11;;;;;;;10.77;9.00;;;;;;;18.31;100.00;99221.25;5110209;28;20222;-77
2023/07/04 04:17:38;;;;;;;9.73;8.73;;;;;;;18.37;100.00;99213.91;5110460;28;20200;-76
2023/07/04 04:20:06;;;;;;;10.03;8.90;;;;;;;18.44;100.00;99217.91;5102083;28;20245;-76
2023/07/04 04:22:33;;;;;;;9.87;8.90;;;;;;;18.69;100.00;99230.53;5112345;28;20213;-76
2023/07/04 04:25:00;;;;;;;10.40;9.23;;;;;;;19.57;100.00;99226.81;5105246;28;20673;-77
2023/07/04 04:27:27;;;;;;;10.40;9.23;;;;;;;20.05;100.00;99236.59;5090880;28;20194;-76
2023/07/04 04:29:54;;;;;;;10.50;8.80;;;;;;;21.22;100.00;99238.47;5108673;28;20644;-76
2023/07/04 04:32:23;;;;;;;10.23;9.03;;;;;;;22.58;100.00;99231.41;5108475;28;20262;-77
2023/07/04 04:34:50;;;;;;;9.87;8.63;;;;;;;23.28;100.00;99239.84;5098564;28;20215;-78
2023/07/04 04:37:16;;;;;;;9.13;8.20;;;;;;;23.21;100.00;99236.75;5112582;28;20191;-77
2023/07/04 04:39:44;;;;;;;10.20;9.20;;;;;;;22.65;100.00;99239.97;5112152;28;20218;-76
2023/07/04 04:42:14;;;;;;;10.03;8.53;;;;;;;22.15;100.00;99231.81;5077431;28;20218;-76
2023/07/04 04:44:42;;;;;;;10.50;8.48;;;;;;;21.79;100.00;99244.53;5104685;28;20634;-76
2023/07/04 04:47:08;;;;;;;10.02;8.95;;;;;;;21.52;100.00;99234.38;5112314;28;20199;-76
2023/07/04 04:49:35;;;;;;;10.75;8.70;;;;;;;21.33;100.00;99231.72;5112233;28;20212;-77
2023/07/04 04:52:02;;;;;;;10.48;9.02;;;;;;;21.27;100.00;99234.84;5089069;28;20220;-76
2023/07/04 04:54:30;;;;;;;9.65;8.70;;;;;;;21.27;100.00;99243.81;5112063;28;20195;-76
2023/07/04 04:56:56;;;;;;;9.85;8.80;;;;;;;21.35;100.00;99239.59;5112173;28;20282;-76
2023/07/04 04:59:23;;;;;;;9.50;8.48;;;;;;;21.47;100.00;99237.19;5111882;28;20191;-78
2023/07/04 05:01:50;;;;;;;10.73;9.38;;;;;;;21.61;100.00;99238.00;5112137;28;20297;-77
2023/07/04 05:04:17;;;;;;;11.13;9.05;;;;;;;21.73;100.00;99243.81;5110252;28;20732;-76
2023/07/04 05:06:43;;;;;;;9.23;8.32;;;;;;;21.97;100.00;99238.19;5107878;28;20251;-77
2023/07/04 05:09:10;;;;;;;10.00;8.77;;;;;;;22.22;100.00;99242.28;5108959;28;20243;-77
2023/07/04 05:11:37;;;;;;;9.05;8.15;;;;;;;22.50;100.00;99259.44;5112006;28;20322;-77
2023/07/04 05:14:04;;;;;;;10.80;8.77;;;;;;;22.70;100.00;99248.91;5109078;28;20274;-76
2023/07/04 05:16:31;;;;;;;9.80;8.55;;;;;;;22.91;100.00;99253.91;5112139;28;20194;-77
2023/07/04 05:18:57;;;;;;;9.98;8.70;;;;;;;23.07;100.00;99252.41;5110329;28;20205;-77
2023/07/04 05:21:24;;;;;;;10.38;9.02;;;;;;;23.32;100.00;99253.69;5104914;28;20291;-77
2023/07/04 05:23:52;;;;;;;9.75;8.40;;;;;;;23.50;100.00;99255.44;5093068;28;20195;-76
2023/07/04 05:26:24;;;;;;;10.75;8.90;;;;;;;23.66;100.00;99259.38;5087961;28;20246;-76
2023/07/04 05:28:52;;;;;;;9.77;8.20;;;;;;;23.84;100.00;99272.03;5103578;28;20208;-77
2023/07/04 05:31:27;;;;;;;10.38;9.23;;;;;;;23.78;100.00;99258.78;5099902;28;20279;-77
2023/07/04 05:33:55;;;;;;;10.50;8.60;;;;;;;23.61;100.00;99263.03;5101842;28;20665;-76
2023/07/04 05:36:28;;;;;;;10.10;8.18;;;;;;;23.57;100.00;99264.81;5094203;28;20665;-76
2023/07/04 05:38:59;;;;;;;9.88;8.40;;;;;;;23.77;100.00;99263.47;5101833;28;20196;-77
2023/07/04 05:41:28;;;;;;;9.57;8.48;;;;;;;23.82;100.00;99267.97;5100350;28;20632;-76
2023/07/04 05:43:58;;;;;;;9.55;8.65;;;;;;;23.91;100.00;99260.63;5107622;28;20719;-77
2023/07/04 05:46:25;;;;;;;9.50;8.52;;;;;;;23.94;100.00;99252.56;5111654;28;20196;-77
2023/07/04 05:48:52;;;;;;;9.50;8.25;;;;;;;23.93;100.00;99259.19;5097003;28;20664;-76
2023/07/04 05:51:19;;;;;;;9.40;8.50;;;;;;;24.05;100.00;99253.91;5107404;28;20269;-78
2023/07/04 05:53:48;;;;;;;10.75;8.93;;;;;;;24.12;100.00;99250.72;5089478;28;20221;-77
2023/07/04 05:56:20;;;;;;;9.93;8.18;;;;;;;24.17;100.00;99252.53;5103350;28;20613;-77
2023/07/04 05:58:53;;;;;;;11.10;8.70;;;;;;;24.30;100.00;99255.16;5107733;28;20202;-76
2023/07/04 06:01:37;;;;;;;10.07;8.80;;;;;;;24.48;100.00;99251.31;5104506;28;20703;-77
2023/07/04 06:04:09;;;;;;;9.38;8.40;;;;;;;24.59;100.00;99249.03;5109971;28;20257;-76
2023/07/04 06:06:38;;;;;;;8.90;7.97;;;;;;;24.64;100.00;99257.09;5107579;28;20248;-77
2023/07/04 06:09:10;;;;;;;10.02;8.05;;;;;;;24.61;100.00;99259.69;5105638;28;20633;-77
2023/07/04 06:11:43;;;;;;;8.80;7.90;;;;;;;24.68;100.00;99249.09;5111617;28;20226;-77
2023/07/04 06:14:09;;;;;;;8.98;7.35;;;;;;;24.83;100.00;99251.31;5090258;28;20286;-77
2023/07/04 06:16:36;;;;;;;10.32;7.22;;;;;;;24.71;100.00;99251.16;5111554;28;20656;-77
2023/07/04 06:19:03;;;;;;;9.65;7.13;;;;;;;24.84;100.00;99247.47;5097071;28;20193;-78
2023/07/04 06:21:30;;;;;;;8.45;6.00;;;;;;;24.90;100.00;99248.94;5099058;28;20304;-77
2023/07/04 06:24:10;;;;;;;8.75;6.40;;;;;;;25.12;100.00;99253.44;5103261;28;20281;-77
2023/07/04 06:26:37;;;;;;;8.02;6.68;;;;;;;25.15;100.00;99253.59;5083009;28;20201;-76
2023/07/04 06:29:04;;;;;;;7.47;5.50;;;;;;;25.42;97.44;99252.44;5114571;28;20611;-76
2023/07/04 06:31:31;;;;;;;8.02;6.00;;;;;;;25.62;96.48;99250.94;5114733;28;20192;-78
2023/07/04 06:33:58;;;;;;;10.15;5.70;;;;;;;25.65;92.61;99253.03;5114671;28;20261;-76
2023/07/04 06:36:25;;;;;;;10.18;5.50;;;;;;;25.72;84.09;99248.63;5111511;28;20188;-77
2023/07/04 06:38:52;;;;;;;6.75;5.38;;;;;;;25.67;83.35;99257.03;5114525;28;20188;-76
2023/07/04 06:41:19;;;;;;;7.20;4.93;;;;;;;25.57;80.47;99259.34;5112518;28;20459;-77
2023/07/04 06:43:46;;;;;;;6.20;5.18;;;;;;;25.59;78.67;99262.56;5108100;28;20199;-76
2023/07/04 06:46:16;;;;;;;7.13;4.93;;;;;;;25.83;79.22;99252.66;5114743;28;20219;-77
2023/07/04 06:48:45;;;;;;;6.50;4.85;;;;;;;25.91;75.76;99255.66;5111775;28;20204;-76
2023/07/04 06:51:13;;;;;;;7.32;4.93;;;;;;;26.11;76.20;99261.22;5112376;28;20215;-76
2023/07/04 06:53:40;;;;;;;8.27;5.25;;;;;;;26.13;77.54;99256.19;5114596;28;20672;-77
2023/07/04 06:56:08;;;;;;;10.77;6.20;;;;;;;26.08;79.15;99263.84;5110503;28;20192;-75
2023/07/04 06:58:40;;;;;;;6.95;5.40;;;;;;;25.82;80.69;99263.94;5114379;28;20245;-76
2023/07/04 07:01:08;;;;;;;7.05;5.20;;;;;;;26.28;78.09;99260.34;5114315;28;20195;-77
2023/07/04 07:03:35;;;;;;;7.05;5.32;;;;;;;26.20;77.11;99258.44;5114209;28;20227;-77
2023/07/04 07:06:12;;;;;;;7.35;5.30;;;;;;;26.10;76.40;99256.88;5113049;28;20597;-77
2023/07/04 07:08:40;;;;;;;6.75;4.97;;;;;;;25.72;74.60;99258.81;5111797;28;20191;-77
2023/07/04 07:11:09;;;;;;;7.32;5.32;;;;;;;25.57;76.77;99257.41;5114198;28;20295;-76
2023/07/04 07:13:36;;;;;;;9.05;5.32;;;;;;;25.38;74.80;99259.69;5107840;28;20651;-77
2023/07/04 07:16:11;;;;;;;6.40;4.80;;;;;;;25.90;76.03;99260.34;5099185;28;20651;-77
2023/07/04 07:18:40;;;;;;;6.13;5.28;;;;;;;25.84;75.96;99261.69;5087790;28;20188;-75
2023/07/04 07:21:10;;;;;;;6.03;4.75;;;;;;;26.07;74.50;99248.50;5084917;28;20221;-76
2023/07/04 07:23:38;;;;;;;9.05;5.43;;;;;;;25.86;73.85;99251.97;5095373;28;20199;-76
2023/07/04 07:26:06;;;;;;;7.22;5.55;;;;;;;25.70;73.70;99253.66;5099129;28;20192;-76
2023/07/04 07:28:38;;;;;;;7.13;5.20;;;;;;;25.89;74.90;99247.78;5093560;28;20216;-77
2023/07/04 07:31:08;;;;;;;7.57;5.47;;;;;;;26.21;73.66;99249.09;5093604;28;20207;-78
2023/07/04 07:33:37;;;;;;;7.25;5.38;;;;;;;26.53;72.89;99256.66;5096768;28;20635;-77
2023/07/04 07:36:08;;;;;;;6.78;5.85;;;;;;;26.78;73.13;99254.06;5084087;28;20219;-77
2023/07/04 07:38:35;;;;;;;7.43;5.55;;;;;;;26.66;74.17;99261.06;5081832;28;21372;-77
2023/07/04 07:41:02;;;;;;;6.03;5.43;;;;;;;26.86;71.91;99269.69;5080775;28;20216;-76
2023/07/04 07:43:28;;;;;;;7.90;5.60;;;;;;;26.49;70.40;99261.22;5111721;28;20245;-77
2023/07/04 07:45:55;;;;;;;7.40;5.43;;;;;;;26.84;69.22;99264.50;5112473;28;20241;-77
2023/07/04 07:48:22;;;;;;;8.27;5.85;;;;;;;27.04;67.54;99260.16;5111631;28;20199;-77
2023/07/04 07:50:48;;;;;;;7.25;5.70;;;;;;;27.18;68.22;99252.41;5111059;28;20658;-77
2023/07/04 07:53:15;;;;;;;8.70;5.65;;;;;;;27.36;68.67;99244.78;5108230;28;20204;-77
2023/07/04 07:55:42;;;;;;;6.60;5.47;;;;;;;27.02;67.65;99244.00;5109927;28;20215;-77
2023/07/04 07:58:08;;;;;;;8.35;5.63;;;;;;;27.05;67.51;99246.09;5111488;28;20565;-76
2023/07/04 08:00:36;;;;;;;6.53;5.40;;;;;;;27.04;68.03;99243.66;5111306;28;20731;-76
2023/07/04 08:03:02;;;;;;;11.32;5.60;;;;;;;27.14;67.76;99249.56;5113588;28;20234;-77
2023/07/04 08:05:29;;;;;;;6.95;5.53;;;;;;;27.16;65.50;99244.50;5112968;28;20725;-77
2023/07/04 08:07:56;;;;;;;6.78;4.93;;;;;;;27.53;66.34;99241.88;5106501;28;20573;-76
2023/07/04 08:10:22;;;;;;;6.60;5.50;;;;;;;27.77;66.29;99235.59;5099592;28;20213;-77
2023/07/04 08:12:49;;;;;;;8.80;5.60;;;;;;;27.55;63.93;99236.84;5086669;28;20208;-77
2023/07/04 08:15:16;;;;;;;6.38;5.18;;;;;;;27.84;63.51;99235.88;5083017;28;20284;-75
2023/07/04 08:17:42;;;;;;;8.60;5.20;;;;;;;27.70;62.79;99240.91;5096857;28;20241;-76
2023/07/04 08:20:10;;;;;;;6.90;5.50;;;;;;;27.95;62.51;99228.75;5081497;28;20196;-76
2023/07/04 08:22:36;;;;;;;8.50;5.47;;;;;;;28.30;63.04;99235.41;5093706;28;20205;-77
2023/07/04 08:25:05;;;;;;;8.75;5.57;;;;;;;28.58;63.50;99237.44;5101274;28;20279;-76
2023/07/04 08:27:31;;;;;;;7.07;5.63;;;;;;;28.91;60.98;99238.06;5113094;28;20223;-77
2023/07/04 08:29:58;;;;;;;9.90;5.82;;;;;;;29.12;61.06;99246.91;5102875;28;20202;-76
2023/07/04 08:32:25;;;;;;;8.70;5.72;;;;;;;29.33;60.17;99246.75;5112889;28;20614;-77
2023/07/04 08:34:52;;;;;;;5.82;5.22;;;;;;;29.49;58.22;99242.03;5110858;28;20681;-74
2023/07/04 08:37:18;;;;;;;8.50;5.63;;;;;;;29.51;58.01;99239.75;5112187;28;20196;-78
2023/07/04 08:39:46;;;;;;;7.95;5.60;;;;;;;29.75;57.60;99230.50;5112295;28;20223;-77
2023/07/04 08:42:14;;;;;;;7.07;5.68;;;;;;;29.95;56.29;99234.19;5111953;28;20693;-79
2023/07/04 08:44:48;;;;;;;7.05;5.35;;;;;;;30.15;57.66;99239.41;5094168;28;20680;-76
2023/07/04 08:47:17;;;;;;;8.35;5.70;;;;;;;30.41;56.44;99229.75;5112218;28;20191;-76
2023/07/04 08:50:11;;;;;;;8.27;5.25;;;;;;;30.61;55.16;99226.66;5092729;28;20191;-78
2023/07/04 08:53:03;;;;;;;9.85;5.55;;;;;;;31.05;55.35;99229.19;5089903;28;20211;-78
2023/07/04 08:55:32;;;;;;;6.60;4.90;;;;;;;31.73;53.88;99225.72;5112266;28;20654;-78
2023/07/04 08:58:00;;;;;;;6.10;4.93;;;;;;;32.38;52.73;99229.16;5094407;28;20215;-77
2023/07/04 09:00:31;;;;;;;8.13;5.88;;;;;;;32.55;50.89;99236.13;5094111;28;20184;-78
2023/07/04 09:03:16;;;;;;;6.85;5.07;;;;;;;32.72;52.37;99228.06;5112667;28;20238;-78
2023/07/04 09:05:43;;;;;;;9.02;5.63;;;;;;;33.40;51.76;99232.47;5111287;28;20222;-78
2023/07/04 09:08:29;;;;;;;7.78;5.47;;;;;;;33.59;49.17;99225.91;5095469;28;20654;-78
2023/07/04 09:11:07;;;;;;;7.57;5.70;;;;;;;33.71;47.16;99228.41;5093613;28;20218;-78
2023/07/04 09:13:37;;;;;;;7.45;5.60;;;;;;;33.80;45.42;99231.66;5093209;28;20191;-76
2023/07/04 09:16:11;;;;;;;7.07;5.43;;;;;;;33.69;46.55;99235.53;5104873;28;20188;-75
2023/07/04 09:19:00;;;;;;;7.60;5.75;;;;;;;33.13;47.29;99240.06;5111614;28;20192;-77
2023/07/04 09:21:28;;;;;;;6.38;5.20;;;;;;;32.52;47.59;99234.88;5094096;28;20256;-79
2023/07/04 09:23:58;;;;;;;8.80;5.45;;;;;;;32.07;46.56;99237.75;5111639;28;20256;-79
2023/07/04 09:26:39;;;;;;;7.68;5.68;;;;;;;31.69;48.11;99244.22;5112149;28;20282;-78
2023/07/04 09:29:09;;;;;;;8.48;5.53;;;;;;;31.58;49.10;99254.34;5093786;28;20199;-77
2023/07/04 09:31:38;;;;;;;7.15;5.80;;;;;;;31.54;48.88;99251.47;5111859;28;20629;-78
2023/07/04 09:34:21;;;;;;;8.02;5.55;;;;;;;31.58;48.99;99249.59;5086665;28;20192;-77
2023/07/04 09:36:51;;;;;;;9.70;5.72;;;;;;;31.75;50.35;99243.56;5112087;28;20559;-77
2023/07/04 09:39:17;;;;;;;8.30;5.38;;;;;;;31.73;50.33;99240.34;5106147;28;20238;-78
2023/07/04 09:41:58;;;;;;;7.45;5.38;;;;;;;31.69;50.76;99247.00;5111608;28;20280;-77
2023/07/04 09:44:45;;;;;;;7.57;6.07;;;;;;;31.51;51.46;99243.09;5106535;28;20210;-78
2023/07/04 09:47:23;;;;;;;9.05;6.00;;;;;;;31.29;51.05;99244.66;5111704;28;20215;-78
2023/07/04 09:50:07;;;;;;;7.25;5.53;;;;;;;31.10;50.77;99250.22;5093519;28;20211;-77
2023/07/04 09:52:34;;;;;;;8.55;5.30;;;;;;;30.82;52.63;99247.63;5112807;28;20769;-79
2023/07/04 09:55:26;;;;;;;7.38;5.57;;;;;;;30.88;52.67;99251.72;5115568;28;20563;-79
2023/07/04 09:57:52;;;;;;;6.25;5.50;;;;;;;30.65;50.43;99248.88;5115441;28;20196;-78
2023/07/04 10:00:22;;;;;;;7.68;5.45;;;;;;;30.23;49.54;99242.34;5101523;28;20565;-77
2023/07/04 10:02:52;;;;;;;7.13;5.88;;;;;;;29.83;49.55;99243.31;5107333;28;20235;-75
2023/07/04 10:05:29;;;;;;;7.97;5.55;;;;;;;29.75;51.47;99242.34;5084359;28;20232;-75
2023/07/04 10:08:10;;;;;;;7.32;5.80;;;;;;;29.86;51.00;99239.06;5087254;28;20192;-78
2023/07/04 10:10:49;;;;;;;7.78;5.63;;;;;;;30.02;51.27;99235.16;5096972;28;20213;-78
2023/07/04 10:13:19;;;;;;;7.75;6.00;;;;;;;30.10;50.32;99239.69;5101587;28;20191;-77
2023/07/04 10:15:47;;;;;;;7.03;5.32;;;;;;;30.47;50.33;99231.09;5096221;28;20196;-77
2023/07/04 10:18:31;;;;;;;7.47;5.80;;;;;;;30.77;49.83;99231.34;5094033;28;20559;-77
2023/07/04 10:21:00;;;;;;;9.80;5.57;;;;;;;31.07;49.00;99228.81;5101368;28;20187;-78
2023/07/04 10:23:29;;;;;;;6.72;5.38;;;;;;;31.54;48.44;99223.78;5075340;28;20213;-78
2023/07/04 10:25:58;;;;;;;7.72;5.95;;;;;;;31.79;48.39;99221.47;5101991;28;20238;-75
2023/07/04 10:28:27;;;;;;;8.45;5.97;;;;;;;32.22;47.70;99209.91;5083816;28;20275;-76
2023/07/04 10:30:58;;;;;;;10.75;5.80;;;;;;;32.46;46.13;99216.19;5113756;28;20223;-76
2023/07/04 10:33:42;;;;;;;6.68;6.00;;;;;;;32.58;46.25;99202.09;5106382;28;20196;-77
2023/07/04 10:36:10;;;;;;;6.70;5.50;;;;;;;32.92;46.78;99206.53;5093733;28;20245;-78
2023/07/04 10:38:51;;;;;;;9.55;5.88;;;;;;;33.18;45.48;99205.63;5096779;28;20219;-79
2023/07/04 10:41:31;;;;;;;8.32;5.60;;;;;;;33.69;45.25;99205.00;5113369;28;20196;-78
2023/07/04 10:44:02;;;;;;;8.55;5.70;;;;;;;33.77;44.73;99199.09;5097094;28;20227;-75
2023/07/04 10:46:46;;;;;;;7.85;6.00;;;;;;;33.98;45.15;99206.78;5096685;28;20249;-77
2023/07/04 10:49:17;;;;;;;6.82;5.65;;;;;;;34.01;44.91;99195.72;5114611;28;20538;-77
2023/07/04 10:51:48;;;;;;;9.27;5.50;;;;;;;34.02;44.23;99200.06;5096672;28;20188;-77
2023/07/04 10:54:15;;;;;;;9.35;5.47;;;;;;;33.67;43.44;99202.59;5096217;28;20200;-78
2023/07/04 10:56:49;;;;;;;8.93;5.82;;;;;;;33.68;43.04;99183.94;5096493;28;20275;-76
2023/07/04 10:59:18;;;;;;;8.82;5.85;;;;;;;33.60;43.09;99189.41;5109994;28;20731;-76
2023/07/04 11:01:51;;;;;;;8.00;5.47;;;;;;;33.34;43.67;99197.09;5082889;28;20227;-78
2023/07/04 11:04:33;;;;;;;7.78;5.53;;;;;;;33.04;44.76;99194.34;5079449;28;20239;-78
2023/07/04 11:07:04;;;;;;;8.35;6.18;;;;;;;32.84;44.39;99185.44;5077741;28;20196;-78
2023/07/04 11:09:36;;;;;;;7.72;5.78;;;;;;;32.72;44.62;99183.69;5082552;28;20223;-75
2023/07/04 11:12:07;;;;;;;7.68;5.93;;;;;;;33.04;44.73;99192.38;5075699;28;20192;-75
2023/07/04 11:14:40;;;;;;;8.55;6.15;;;;;;;33.55;43.88;99189.75;5088772;28;20223;-75
2023/07/04 11:17:13;;;;;;;6.30;5.70;;;;;;;33.95;44.23;99183.38;5087418;28;20188;-75
2023/07/04 11:20:17;;;;;;;8.45;6.25;;;;;;;33.66;43.61;99177.94;5090928;28;20250;-75
2023/07/04 11:22:50;;;;;;;9.65;6.38;;;;;;;33.86;44.24;99182.09;5060091;28;20223;-77
2023/07/04 11:25:54;;;;;;;9.60;5.80;;;;;;;34.25;43.89;99177.63;5089728;28;20195;-78
2023/07/04 11:28:36;;;;;;;7.15;6.20;;;;;;;34.65;43.63;99181.41;5089423;28;20246;-75
2023/07/04 11:31:25;;;;;;;8.63;6.18;;;;;;;34.63;43.28;99162.31;5093584;28;20234;-76
2023/07/04 11:33:52;;;;;;;7.60;5.78;;;;;;;34.60;42.97;99159.53;5083289;28;20669;-77
2023/07/04 11:36:25;;;;;;;8.05;6.00;;;;;;;34.41;42.86;99167.00;5093509;28;20196;-79
2023/07/04 11:38:56;;;;;;;8.82;5.90;;;;;;;34.02;42.85;99168.72;5089814;28;20195;-78
2023/07/04 11:41:39;;;;;;;7.85;5.95;;;;;;;33.34;43.92;99161.00;5093358;28;20222;-78